Pagrindinis puslapis
METAR-TAF:

METAR-TAF

Oro uostai :

Kudat, Malaizija

platuma: 06-55N, ilguma: 116-50E, Aukštis: 3 m

Dabartinis oras

Ataskaita buvo paskelbta 1 valandą ir 6 minutes, ne 19:00 UTC
Vėjas 2 kt nuo kintamojo kryptimis
Temperatūra 24°C
Drėgmė 100%
Slėgis 1007 hPa
Matomumas 10 km arba daugiau
Mažai debesys ne aukštis 800 ft
Išsisklaidę debesys ne aukštis 3300 ft
lietus

METAR: WBKT 251900Z VRB02KT 9999 -RA FEW008 SCT033 24/24 Q1007 RERA

Laikas: 04:06 (20:06 UTC)


TAF: trūkstamas

Orai ataskaitas ir orų prognozės (METAR, TAF).

turimą stotys yra geltonos ir raudonos taškus žemėlapyje.

Perkelti pele per norėdami pamatyti stoties vardą.

Tada spustelėkite, norėdami matyti oro stebėjimo ir prognozės.

Norėdami pakeisti žemėlapį: spustelėkite ant žalios mygtukų su juodo kryžiaus žemyn,; žalią mygtuką su brūkšneliu, jei norite nutolinti; arba žalių rodyklių gretimoms žemėlapius.


METAR-TAF: